»·PEaware :: N7736C KSAC-KFAT

N7736C :: KSAC-KFAT

FLIGHT INFORMATION

Flight Status: Arrived
Operator: Privately registered:
United States
More flights under this callsign
Pilot: Luis U. (24404)
Aircraft: PIPER PA-46-500TP MALIBU MERIDIAN
(P46T)
More flights by this aircraft type
Origin: KSAC Sacramento Executive
United States
Destination: KFAT Fresno Yosemite Intl
United States
More flights between these airports :: More routes between these airports
Route: +V23 LIN V459 COGOL SANGO
File this flight plan on PilotEdge
Remarks: AIRPORT NOT ALIGN PROPERLY.
Altitude:
(Current/Filed)
12,000ft
Speed:
(Current/Filed)
170kts
Departed: 04-May-20 05:08 PM
Arrived: 04-May-20 06:16 PM
Distance/Time
Traveled:
134nm/1:08
Distance/Time
To Go:
Arrived

Flight Plot

Page will automatically refresh every two minutes.

Flight plan parsing failed; only flown route is shown


Map Options




Map Legend


Flown Route
Filed Route
Departure Airport
Arrival Airport
Navaid (VOR, NDB)
Fix

Horizontal Profiles

Position Reports

Time Latitude Longitude Heading Altitude Ground
Speed
04-May-20 16:39 38.515963 -121.496984 222 28ft 0kts
04-May-20 16:40 38.515963 -121.496984 222 28ft 0kts
04-May-20 16:41 38.515961 -121.496986 222 28ft 0kts
04-May-20 16:42 38.515954 -121.496995 229 28ft 0kts
04-May-20 16:43 38.515954 -121.496995 229 28ft 0kts
04-May-20 16:44 38.515954 -121.496995 229 28ft 0kts
04-May-20 16:45 38.515954 -121.496995 229 28ft 0kts
04-May-20 16:46 38.515954 -121.496995 229 28ft 0kts
04-May-20 16:47 38.515954 -121.496995 229 28ft 0kts
04-May-20 16:48 38.515954 -121.496995 229 28ft 0kts
04-May-20 16:49 38.515954 -121.496995 229 28ft 0kts
04-May-20 16:50 38.515954 -121.496995 229 28ft 0kts
04-May-20 16:51 38.515954 -121.496995 229 28ft 0kts
04-May-20 16:52 38.515954 -121.496995 229 28ft 0kts
04-May-20 16:53 38.515954 -121.496995 229 28ft 0kts
04-May-20 16:54 38.515954 -121.496995 229 28ft 0kts
04-May-20 16:55 38.515954 -121.496995 229 28ft 0kts
04-May-20 16:56 38.515105 -121.496249 130 28ft 13kts
04-May-20 16:57 38.515130 -121.495370 31 28ft 4kts
04-May-20 16:58 38.516870 -121.495696 20 28ft 11kts
04-May-20 16:59 38.516870 -121.495696 20 28ft 11kts
04-May-20 17:00 38.518983 -121.494565 22 28ft 11kts
04-May-20 17:01 38.519217 -121.490980 59 28ft 5kts
04-May-20 17:02 38.519230 -121.490093 119 28ft 0kts
04-May-20 17:03 38.519227 -121.490085 119 28ft 0kts
04-May-20 17:04 38.519224 -121.490078 119 28ft 0kts
04-May-20 17:05 38.519220 -121.490070 119 28ft 0kts
04-May-20 17:06 38.519217 -121.490063 119 28ft 0kts
04-May-20 17:07 38.507541 -121.499180 215 183ft 125kts
04-May-20 17:08 38.475337 -121.525043 215 2118ft 153kts
04-May-20 17:09 38.441161 -121.559062 224 2232ft 141kts
04-May-20 17:10 38.414706 -121.589922 221 1694ft 120kts
04-May-20 17:11 38.400698 -121.606124 226 2055ft 96kts
04-May-20 17:12 38.380331 -121.632308 225 4243ft 116kts
04-May-20 17:13 38.352632 -121.623993 122 6733ft 119kts
04-May-20 17:14 38.342799 -121.582390 96 9077ft 129kts
04-May-20 17:15 38.320669 -121.548421 111 10878ft 137kts
04-May-20 17:16 38.300463 -121.496339 118 11193ft 176kts
04-May-20 17:17 38.274900 -121.433923 113 10870ft 193kts
04-May-20 17:18 38.242146 -121.381443 113 11274ft 184kts
04-May-20 17:19 38.238598 -121.366117 98 11343ft 186kts
04-May-20 17:20 38.213468 -121.307551 127 11245ft 186kts
04-May-20 17:21 38.184822 -121.253353 124 10859ft 171kts
04-May-20 17:22 38.156432 -121.203466 128 10388ft 175kts
04-May-20 17:23 38.137939 -121.155921 110 11068ft 132kts
04-May-20 17:24 38.121840 -121.120361 122 11360ft 134kts
04-May-20 17:25 38.105525 -121.085452 111 11051ft 170kts
04-May-20 17:26 38.084556 -121.035179 117 11383ft 149kts
04-May-20 17:27 38.058803 -120.987053 127 11069ft 175kts
04-May-20 17:28 38.028927 -120.939074 143 10969ft 174kts
04-May-20 17:29 38.003194 -120.888166 113 10698ft 167kts
04-May-20 17:30 37.987130 -120.835904 105 10829ft 164kts
04-May-20 17:31 37.984007 -120.823836 107 10721ft 170kts
04-May-20 17:32 37.977653 -120.801399 112 10718ft 167kts
04-May-20 17:33 37.951347 -120.753043 125 10735ft 167kts
04-May-20 17:34 37.918879 -120.712035 127 10904ft 155kts
04-May-20 17:35 37.892379 -120.670241 127 11156ft 152kts
04-May-20 17:36 37.864684 -120.627275 124 11099ft 167kts
04-May-20 17:37 37.834058 -120.580266 126 10993ft 172kts
04-May-20 17:38 37.805427 -120.533150 119 11197ft 169kts
04-May-20 17:39 37.780378 -120.482633 124 11377ft 171kts
04-May-20 17:40 37.755031 -120.428210 121 10879ft 192kts
04-May-20 17:41 37.727509 -120.374996 130 10890ft 174kts
04-May-20 17:42 37.700325 -120.326558 127 11118ft 167kts
04-May-20 17:43 37.672841 -120.279063 129 11400ft 162kts
04-May-20 17:44 37.642943 -120.235598 119 11446ft 177kts
04-May-20 17:45 37.620084 -120.178585 126 10957ft 186kts
04-May-20 17:46 37.586930 -120.135252 134 11208ft 166kts
04-May-20 17:48 37.553206 -120.094493 141 10998ft 182kts
04-May-20 17:49 37.521365 -120.047764 136 10902ft 176kts
04-May-20 17:50 37.487395 -120.006067 143 10945ft 168kts
04-May-20 17:51 37.448264 -119.971381 137 10750ft 185kts
04-May-20 17:52 37.411792 -119.931305 140 11039ft 181kts
04-May-20 17:53 37.372855 -119.891230 135 11099ft 178kts
04-May-20 17:54 37.335512 -119.849116 138 11086ft 180kts
04-May-20 17:55 37.307110 -119.819963 141 11122ft 180kts
04-May-20 17:56 37.275698 -119.790784 146 11132ft 181kts
04-May-20 17:57 37.228124 -119.766504 158 11055ft 181kts
04-May-20 17:58 37.180549 -119.745387 162 11066ft 182kts
04-May-20 17:59 37.131954 -119.725294 156 11016ft 181kts
04-May-20 18:00 37.084441 -119.702858 163 10992ft 182kts
04-May-20 18:01 37.035994 -119.683403 161 10926ft 185kts
04-May-20 18:02 36.986962 -119.664301 163 10781ft 186kts
04-May-20 18:03 36.938311 -119.646816 166 10901ft 175kts
04-May-20 18:04 36.895770 -119.615789 161 10988ft 179kts
04-May-20 18:05 36.848325 -119.588164 166 10573ft 178kts
04-May-20 18:05 36.812789 -119.573768 167 10023ft 154kts
04-May-20 18:06 36.764072 -119.554062 159 8573ft 192kts
04-May-20 18:08 36.707421 -119.529042 161 5733ft 185kts
04-May-20 18:08 36.669342 -119.526893 231 3524ft 159kts
04-May-20 18:09 36.682213 -119.552604 3 2026ft 123kts
04-May-20 18:10 36.709633 -119.593136 303 2004ft 156kts
04-May-20 18:11 36.725864 -119.625621 302 1663ft 88kts
04-May-20 18:12 36.740177 -119.651691 301 1113ft 109kts
04-May-20 18:13 36.757780 -119.683759 304 871ft 83kts
04-May-20 18:14 36.770840 -119.706955 304 344ft 79kts
04-May-20 18:15 36.775154 -119.715216 154 340ft 5kts
04-May-20 18:16 36.773557 -119.714310 189 340ft 0kts
04-May-20 18:17 36.774330 -119.715595 212 340ft 14kts
04-May-20 18:18 36.772296 -119.717617 226 340ft 0kts

Navigation Log

Ident Type
Flight plan parsing failed, navigation log unavailable